sensor_id;sensor_type;location;lat;lon;timestamp;temperature;humidity
15949;DHT22;14848;50.954;6.642;2022-11-18T00:01:28;8.60;99.90
15949;DHT22;14848;50.954;6.642;2022-11-18T00:03:54;8.50;99.90
15949;DHT22;14848;50.954;6.642;2022-11-18T00:06:23;8.40;99.90
15949;DHT22;14848;50.954;6.642;2022-11-18T00:08:49;8.40;99.90
15949;DHT22;14848;50.954;6.642;2022-11-18T00:11:16;8.30;99.90
15949;DHT22;14848;50.954;6.642;2022-11-18T00:14:01;8.30;99.90
15949;DHT22;14848;50.954;6.642;2022-11-18T00:16:46;8.20;99.90
15949;DHT22;14848;50.954;6.642;2022-11-18T00:19:12;8.20;99.90
15949;DHT22;14848;50.954;6.642;2022-11-18T00:21:37;8.30;99.90
15949;DHT22;14848;50.954;6.642;2022-11-18T00:24:03;8.30;99.90
15949;DHT22;14848;50.954;6.642;2022-11-18T00:26:28;8.30;99.90
15949;DHT22;14848;50.954;6.642;2022-11-18T00:28:54;8.40;99.90
15949;DHT22;14848;50.954;6.642;2022-11-18T00:31:19;8.40;99.90
15949;DHT22;14848;50.954;6.642;2022-11-18T00:33:45;8.40;99.90
15949;DHT22;14848;50.954;6.642;2022-11-18T00:36:11;8.40;99.90
15949;DHT22;14848;50.954;6.642;2022-11-18T00:38:37;8.50;99.90
15949;DHT22;14848;50.954;6.642;2022-11-18T00:41:03;8.50;99.90
15949;DHT22;14848;50.954;6.642;2022-11-18T00:43:29;8.50;99.90
15949;DHT22;14848;50.954;6.642;2022-11-18T00:45:55;8.60;99.90
15949;DHT22;14848;50.954;6.642;2022-11-18T00:48:21;8.60;99.90
15949;DHT22;14848;50.954;6.642;2022-11-18T00:50:50;8.60;99.90
15949;DHT22;14848;50.954;6.642;2022-11-18T00:53:16;8.60;99.90
15949;DHT22;14848;50.954;6.642;2022-11-18T00:55:42;8.70;99.90
15949;DHT22;14848;50.954;6.642;2022-11-18T00:58:08;8.60;99.90
15949;DHT22;14848;50.954;6.642;2022-11-18T01:00:34;8.70;99.90
15949;DHT22;14848;50.954;6.642;2022-11-18T01:02:59;8.70;99.90
15949;DHT22;14848;50.954;6.642;2022-11-18T01:05:25;8.70;99.90
15949;DHT22;14848;50.954;6.642;2022-11-18T01:07:50;8.60;99.90
15949;DHT22;14848;50.954;6.642;2022-11-18T01:10:16;8.60;99.90
15949;DHT22;14848;50.954;6.642;2022-11-18T01:12:41;8.60;99.90
15949;DHT22;14848;50.954;6.642;2022-11-18T01:15:26;8.60;99.90
15949;DHT22;14848;50.954;6.642;2022-11-18T01:17:51;8.70;99.90
15949;DHT22;14848;50.954;6.642;2022-11-18T01:20:17;8.70;99.90
15949;DHT22;14848;50.954;6.642;2022-11-18T01:22:42;8.70;99.90
15949;DHT22;14848;50.954;6.642;2022-11-18T01:25:08;8.70;99.90
15949;DHT22;14848;50.954;6.642;2022-11-18T01:27:33;8.70;99.90
15949;DHT22;14848;50.954;6.642;2022-11-18T01:29:59;8.70;99.90
15949;DHT22;14848;50.954;6.642;2022-11-18T01:32:24;8.70;99.90
15949;DHT22;14848;50.954;6.642;2022-11-18T01:34:50;8.70;99.90
15949;DHT22;14848;50.954;6.642;2022-11-18T01:37:15;8.80;99.90
15949;DHT22;14848;50.954;6.642;2022-11-18T01:39:41;8.80;99.90
15949;DHT22;14848;50.954;6.642;2022-11-18T01:42:13;8.80;99.90
15949;DHT22;14848;50.954;6.642;2022-11-18T01:47:24;8.80;99.90
15949;DHT22;14848;50.954;6.642;2022-11-18T01:49:51;8.80;99.90
15949;DHT22;14848;50.954;6.642;2022-11-18T01:52:17;8.80;99.90
15949;DHT22;14848;50.954;6.642;2022-11-18T01:54:43;8.80;99.90
15949;DHT22;14848;50.954;6.642;2022-11-18T01:57:12;8.80;99.90
15949;DHT22;14848;50.954;6.642;2022-11-18T01:59:41;8.70;99.90
15949;DHT22;14848;50.954;6.642;2022-11-18T02:02:10;8.70;99.90
15949;DHT22;14848;50.954;6.642;2022-11-18T02:04:36;8.70;99.90
15949;DHT22;14848;50.954;6.642;2022-11-18T02:07:03;8.70;99.90
15949;DHT22;14848;50.954;6.642;2022-11-18T02:09:28;8.70;99.90
15949;DHT22;14848;50.954;6.642;2022-11-18T02:11:54;8.60;99.90
15949;DHT22;14848;50.954;6.642;2022-11-18T02:14:31;8.60;99.90
15949;DHT22;14848;50.954;6.642;2022-11-18T02:27:18;8.50;99.90
15949;DHT22;14848;50.954;6.642;2022-11-18T02:33:07;8.50;99.90
15949;DHT22;14848;50.954;6.642;2022-11-18T02:38:08;8.40;99.90
15949;DHT22;14848;50.954;6.642;2022-11-18T02:43:06;8.40;99.90
15949;DHT22;14848;50.954;6.642;2022-11-18T02:45:32;8.40;99.90
15949;DHT22;14848;50.954;6.642;2022-11-18T02:50:25;8.40;99.90
15949;DHT22;14848;50.954;6.642;2022-11-18T02:52:54;8.40;99.90
15949;DHT22;14848;50.954;6.642;2022-11-18T02:55:20;8.40;99.90
15949;DHT22;14848;50.954;6.642;2022-11-18T02:57:46;8.40;99.90
15949;DHT22;14848;50.954;6.642;2022-11-18T03:00:12;8.40;99.90
15949;DHT22;14848;50.954;6.642;2022-11-18T03:02:42;8.40;99.90
15949;DHT22;14848;50.954;6.642;2022-11-18T03:05:09;8.40;99.90
15949;DHT22;14848;50.954;6.642;2022-11-18T03:07:37;8.40;99.90
15949;DHT22;14848;50.954;6.642;2022-11-18T03:10:05;8.40;99.90
15949;DHT22;14848;50.954;6.642;2022-11-18T03:12:40;8.40;99.90
15949;DHT22;14848;50.954;6.642;2022-11-18T03:22:46;8.40;99.90
15949;DHT22;14848;50.954;6.642;2022-11-18T03:30:15;8.40;99.90
15949;DHT22;14848;50.954;6.642;2022-11-18T03:32:42;8.40;99.90
15949;DHT22;14848;50.954;6.642;2022-11-18T03:35:17;8.50;99.90
15949;DHT22;14848;50.954;6.642;2022-11-18T03:37:45;8.50;99.90
15949;DHT22;14848;50.954;6.642;2022-11-18T03:40:22;8.50;99.90
15949;DHT22;14848;50.954;6.642;2022-11-18T03:42:50;8.50;99.90
15949;DHT22;14848;50.954;6.642;2022-11-18T03:45:40;8.50;99.90
15949;DHT22;14848;50.954;6.642;2022-11-18T03:48:48;8.50;99.90
15949;DHT22;14848;50.954;6.642;2022-11-18T03:50:56;8.50;99.90
15949;DHT22;14848;50.954;6.642;2022-11-18T03:53:24;8.60;99.90
15949;DHT22;14848;50.954;6.642;2022-11-18T03:55:51;8.40;99.90
15949;DHT22;14848;50.954;6.642;2022-11-18T03:58:23;8.60;99.90
15949;DHT22;14848;50.954;6.642;2022-11-18T04:00:55;8.60;99.90
15949;DHT22;14848;50.954;6.642;2022-11-18T04:03:23;8.60;99.90
15949;DHT22;14848;50.954;6.642;2022-11-18T04:05:50;8.60;99.90
15949;DHT22;14848;50.954;6.642;2022-11-18T04:08:26;8.50;99.90
15949;DHT22;14848;50.954;6.642;2022-11-18T04:10:57;8.50;99.90
15949;DHT22;14848;50.954;6.642;2022-11-18T04:13:26;8.50;99.90
15949;DHT22;14848;50.954;6.642;2022-11-18T04:15:53;8.50;99.90
15949;DHT22;14848;50.954;6.642;2022-11-18T04:18:18;8.50;99.90
15949;DHT22;14848;50.954;6.642;2022-11-18T04:20:44;8.50;99.90
15949;DHT22;14848;50.954;6.642;2022-11-18T04:23:10;8.50;99.90
15949;DHT22;14848;50.954;6.642;2022-11-18T04:25:35;8.50;99.90
15949;DHT22;14848;50.954;6.642;2022-11-18T04:28:01;8.50;99.90
15949;DHT22;14848;50.954;6.642;2022-11-18T04:30:26;8.50;99.90
15949;DHT22;14848;50.954;6.642;2022-11-18T04:32:52;8.50;99.90
15949;DHT22;14848;50.954;6.642;2022-11-18T04:35:17;8.50;99.90
15949;DHT22;14848;50.954;6.642;2022-11-18T04:37:43;8.50;99.90
15949;DHT22;14848;50.954;6.642;2022-11-18T04:40:09;8.50;99.90
15949;DHT22;14848;50.954;6.642;2022-11-18T04:42:35;8.50;99.90
15949;DHT22;14848;50.954;6.642;2022-11-18T04:45:00;8.50;99.90
15949;DHT22;14848;50.954;6.642;2022-11-18T04:47:29;8.50;99.90
15949;DHT22;14848;50.954;6.642;2022-11-18T04:49:54;8.50;99.90
15949;DHT22;14848;50.954;6.642;2022-11-18T04:52:20;8.50;99.90
15949;DHT22;14848;50.954;6.642;2022-11-18T04:54:45;8.40;99.90
15949;DHT22;14848;50.954;6.642;2022-11-18T04:57:11;8.40;99.90
15949;DHT22;14848;50.954;6.642;2022-11-18T04:59:37;8.40;99.90
15949;DHT22;14848;50.954;6.642;2022-11-18T05:02:03;8.40;99.90
15949;DHT22;14848;50.954;6.642;2022-11-18T05:04:29;8.30;99.90
15949;DHT22;14848;50.954;6.642;2022-11-18T05:06:55;8.30;99.90
15949;DHT22;14848;50.954;6.642;2022-11-18T05:09:21;8.30;99.90
15949;DHT22;14848;50.954;6.642;2022-11-18T05:11:47;8.30;99.90
15949;DHT22;14848;50.954;6.642;2022-11-18T05:14:31;8.30;99.90
15949;DHT22;14848;50.954;6.642;2022-11-18T05:16:57;8.30;99.90
15949;DHT22;14848;50.954;6.642;2022-11-18T05:19:23;8.30;99.90
15949;DHT22;14848;50.954;6.642;2022-11-18T05:21:49;8.30;99.90
15949;DHT22;14848;50.954;6.642;2022-11-18T05:24:15;9.00;99.90
15949;DHT22;14848;50.954;6.642;2022-11-18T05:26:40;8.30;99.90
15949;DHT22;14848;50.954;6.642;2022-11-18T05:29:06;8.30;99.90
15949;DHT22;14848;50.954;6.642;2022-11-18T05:31:32;8.20;99.90
15949;DHT22;14848;50.954;6.642;2022-11-18T05:33:57;8.20;99.90
15949;DHT22;14848;50.954;6.642;2022-11-18T05:36:23;8.20;99.90
15949;DHT22;14848;50.954;6.642;2022-11-18T05:38:49;8.20;99.90
15949;DHT22;14848;50.954;6.642;2022-11-18T05:41:15;8.20;99.90
15949;DHT22;14848;50.954;6.642;2022-11-18T05:44:09;8.20;99.90
15949;DHT22;14848;50.954;6.642;2022-11-18T05:46:35;8.20;99.90
15949;DHT22;14848;50.954;6.642;2022-11-18T05:49:00;8.20;99.90
15949;DHT22;14848;50.954;6.642;2022-11-18T05:51:26;8.20;99.90
15949;DHT22;14848;50.954;6.642;2022-11-18T05:53:51;8.20;99.90
15949;DHT22;14848;50.954;6.642;2022-11-18T05:58:48;8.10;99.90
15949;DHT22;14848;50.954;6.642;2022-11-18T06:01:15;8.10;99.90
15949;DHT22;14848;50.954;6.642;2022-11-18T06:03:43;8.00;99.90
15949;DHT22;14848;50.954;6.642;2022-11-18T06:06:09;8.00;99.90
15949;DHT22;14848;50.954;6.642;2022-11-18T06:08:36;8.00;99.90
15949;DHT22;14848;50.954;6.642;2022-11-18T06:11:03;8.00;99.90
15949;DHT22;14848;50.954;6.642;2022-11-18T06:13:34;8.00;99.90
15949;DHT22;14848;50.954;6.642;2022-11-18T06:16:01;8.10;99.90
15949;DHT22;14848;50.954;6.642;2022-11-18T06:18:27;8.10;99.90
15949;DHT22;14848;50.954;6.642;2022-11-18T06:20:54;8.10;99.90
15949;DHT22;14848;50.954;6.642;2022-11-18T06:23:21;8.10;99.90
15949;DHT22;14848;50.954;6.642;2022-11-18T06:25:47;8.00;99.90
15949;DHT22;14848;50.954;6.642;2022-11-18T06:28:13;8.00;99.90
15949;DHT22;14848;50.954;6.642;2022-11-18T06:30:39;8.00;99.90
15949;DHT22;14848;50.954;6.642;2022-11-18T06:33:05;8.00;99.90
15949;DHT22;14848;50.954;6.642;2022-11-18T06:35:30;8.00;99.90
15949;DHT22;14848;50.954;6.642;2022-11-18T06:37:56;8.00;99.90
15949;DHT22;14848;50.954;6.642;2022-11-18T06:40:21;8.00;99.90
15949;DHT22;14848;50.954;6.642;2022-11-18T06:42:47;8.00;99.90
15949;DHT22;14848;50.954;6.642;2022-11-18T06:45:31;8.10;99.90
15949;DHT22;14848;50.954;6.642;2022-11-18T06:47:57;8.10;99.90
15949;DHT22;14848;50.954;6.642;2022-11-18T06:50:22;8.10;99.90
15949;DHT22;14848;50.954;6.642;2022-11-18T06:52:48;8.10;99.90
15949;DHT22;14848;50.954;6.642;2022-11-18T06:55:13;8.20;99.90
15949;DHT22;14848;50.954;6.642;2022-11-18T06:57:39;8.20;99.90
15949;DHT22;14848;50.954;6.642;2022-11-18T07:00:05;8.20;99.90
15949;DHT22;14848;50.954;6.642;2022-11-18T07:02:30;8.20;99.90
15949;DHT22;14848;50.954;6.642;2022-11-18T07:04:56;8.20;99.90
15949;DHT22;14848;50.954;6.642;2022-11-18T07:07:21;8.20;99.90
15949;DHT22;14848;50.954;6.642;2022-11-18T07:09:47;8.30;99.90
15949;DHT22;14848;50.954;6.642;2022-11-18T07:12:13;8.30;99.90
15949;DHT22;14848;50.954;6.642;2022-11-18T07:14:38;8.30;99.90
15949;DHT22;14848;50.954;6.642;2022-11-18T07:17:04;8.30;99.90
15949;DHT22;14848;50.954;6.642;2022-11-18T07:19:29;8.30;99.90
15949;DHT22;14848;50.954;6.642;2022-11-18T07:21:55;8.30;99.90
15949;DHT22;14848;50.954;6.642;2022-11-18T07:24:21;8.30;99.90
15949;DHT22;14848;50.954;6.642;2022-11-18T07:26:46;8.20;99.90
15949;DHT22;14848;50.954;6.642;2022-11-18T07:29:12;8.20;99.90
15949;DHT22;14848;50.954;6.642;2022-11-18T07:31:37;8.20;99.90
15949;DHT22;14848;50.954;6.642;2022-11-18T07:34:04;8.30;99.90
15949;DHT22;14848;50.954;6.642;2022-11-18T07:36:30;8.30;99.90
15949;DHT22;14848;50.954;6.642;2022-11-18T07:38:59;8.20;99.90
15949;DHT22;14848;50.954;6.642;2022-11-18T07:41:25;8.20;99.90
15949;DHT22;14848;50.954;6.642;2022-11-18T07:43:51;8.20;99.90
15949;DHT22;14848;50.954;6.642;2022-11-18T07:48:47;8.10;99.90
15949;DHT22;14848;50.954;6.642;2022-11-18T07:51:14;8.10;99.90
15949;DHT22;14848;50.954;6.642;2022-11-18T07:53:40;8.10;99.90
15949;DHT22;14848;50.954;6.642;2022-11-18T07:56:06;8.10;99.90
15949;DHT22;14848;50.954;6.642;2022-11-18T07:58:32;8.20;99.90
15949;DHT22;14848;50.954;6.642;2022-11-18T08:00:58;8.20;99.90
15949;DHT22;14848;50.954;6.642;2022-11-18T08:03:24;8.20;99.90
15949;DHT22;14848;50.954;6.642;2022-11-18T08:05:49;8.20;99.90
15949;DHT22;14848;50.954;6.642;2022-11-18T08:08:15;8.10;99.90
15949;DHT22;14848;50.954;6.642;2022-11-18T08:10:40;8.20;99.90
15949;DHT22;14848;50.954;6.642;2022-11-18T08:13:06;8.20;99.90
15949;DHT22;14848;50.954;6.642;2022-11-18T08:17:57;8.30;99.90
15949;DHT22;14848;50.954;6.642;2022-11-18T08:20:23;8.40;99.90
15949;DHT22;14848;50.954;6.642;2022-11-18T08:22:51;8.40;99.90
15949;DHT22;14848;50.954;6.642;2022-11-18T08:25:17;8.60;99.90
15949;DHT22;14848;50.954;6.642;2022-11-18T08:27:42;8.70;99.90
15949;DHT22;14848;50.954;6.642;2022-11-18T08:30:08;8.80;99.90
15949;DHT22;14848;50.954;6.642;2022-11-18T08:32:34;8.90;99.90
15949;DHT22;14848;50.954;6.642;2022-11-18T08:34:59;9.00;99.90
15949;DHT22;14848;50.954;6.642;2022-11-18T08:37:25;9.10;99.90
15949;DHT22;14848;50.954;6.642;2022-11-18T08:39:50;9.20;99.90
15949;DHT22;14848;50.954;6.642;2022-11-18T08:42:16;9.30;99.90
15949;DHT22;14848;50.954;6.642;2022-11-18T08:44:46;9.40;99.90
15949;DHT22;14848;50.954;6.642;2022-11-18T08:47:11;9.50;99.90
15949;DHT22;14848;50.954;6.642;2022-11-18T08:49:37;9.60;99.90
15949;DHT22;14848;50.954;6.642;2022-11-18T08:52:02;9.70;99.90
15949;DHT22;14848;50.954;6.642;2022-11-18T08:54:28;9.80;99.90
15949;DHT22;14848;50.954;6.642;2022-11-18T09:01:46;10.00;99.90
15949;DHT22;14848;50.954;6.642;2022-11-18T09:04:11;10.10;99.90
15949;DHT22;14848;50.954;6.642;2022-11-18T09:06:37;10.10;99.90
15949;DHT22;14848;50.954;6.642;2022-11-18T09:09:04;10.10;99.90
15949;DHT22;14848;50.954;6.642;2022-11-18T09:11:30;10.10;99.90
15949;DHT22;14848;50.954;6.642;2022-11-18T09:13:56;10.10;99.90
15949;DHT22;14848;50.954;6.642;2022-11-18T09:16:25;10.00;99.90
15949;DHT22;14848;50.954;6.642;2022-11-18T09:18:51;11.70;99.90
15949;DHT22;14848;50.954;6.642;2022-11-18T09:21:17;10.00;99.90
15949;DHT22;14848;50.954;6.642;2022-11-18T09:23:43;10.00;99.90
15949;DHT22;14848;50.954;6.642;2022-11-18T09:26:10;10.10;99.90
15949;DHT22;14848;50.954;6.642;2022-11-18T09:28:36;10.20;99.90
15949;DHT22;14848;50.954;6.642;2022-11-18T09:31:02;10.30;99.90
15949;DHT22;14848;50.954;6.642;2022-11-18T09:33:28;10.30;99.90
15949;DHT22;14848;50.954;6.642;2022-11-18T09:35:54;10.50;99.90
15949;DHT22;14848;50.954;6.642;2022-11-18T09:38:20;10.50;99.90
15949;DHT22;14848;50.954;6.642;2022-11-18T09:43:46;10.80;99.90
15949;DHT22;14848;50.954;6.642;2022-11-18T09:49:15;10.90;99.90
15949;DHT22;14848;50.954;6.642;2022-11-18T09:51:45;11.00;99.90
15949;DHT22;14848;50.954;6.642;2022-11-18T09:56:44;11.10;99.90
15949;DHT22;14848;50.954;6.642;2022-11-18T09:59:11;11.20;99.90
15949;DHT22;14848;50.954;6.642;2022-11-18T10:01:38;11.20;99.90
15949;DHT22;14848;50.954;6.642;2022-11-18T10:04:04;11.20;99.90
15949;DHT22;14848;50.954;6.642;2022-11-18T10:06:31;11.20;99.90
15949;DHT22;14848;50.954;6.642;2022-11-18T10:11:45;11.20;99.90
15949;DHT22;14848;50.954;6.642;2022-11-18T10:14:16;11.20;99.90
15949;DHT22;14848;50.954;6.642;2022-11-18T10:19:39;11.40;99.90
15949;DHT22;14848;50.954;6.642;2022-11-18T10:22:06;11.50;99.90
15949;DHT22;14848;50.954;6.642;2022-11-18T10:24:44;11.60;99.90
15949;DHT22;14848;50.954;6.642;2022-11-18T10:27:13;11.70;99.90
15949;DHT22;14848;50.954;6.642;2022-11-18T10:29:39;11.80;99.90
15949;DHT22;14848;50.954;6.642;2022-11-18T10:32:07;11.90;99.90
15949;DHT22;14848;50.954;6.642;2022-11-18T10:34:33;13.90;99.90
15949;DHT22;14848;50.954;6.642;2022-11-18T10:37:03;12.00;99.90
15949;DHT22;14848;50.954;6.642;2022-11-18T10:39:29;12.20;99.90
15949;DHT22;14848;50.954;6.642;2022-11-18T10:41:57;12.30;99.90
15949;DHT22;14848;50.954;6.642;2022-11-18T10:44:37;12.40;99.90
15949;DHT22;14848;50.954;6.642;2022-11-18T10:49:49;12.40;99.90
15949;DHT22;14848;50.954;6.642;2022-11-18T10:52:14;12.50;99.90
15949;DHT22;14848;50.954;6.642;2022-11-18T10:54:40;12.40;99.90
15949;DHT22;14848;50.954;6.642;2022-11-18T10:59:45;12.20;99.90
15949;DHT22;14848;50.954;6.642;2022-11-18T11:02:30;12.00;99.90
15949;DHT22;14848;50.954;6.642;2022-11-18T11:04:57;12.10;99.90
15949;DHT22;14848;50.954;6.642;2022-11-18T11:07:24;12.00;99.90
15949;DHT22;14848;50.954;6.642;2022-11-18T11:15:05;11.90;99.90
15949;DHT22;14848;50.954;6.642;2022-11-18T11:17:34;11.80;99.90
15949;DHT22;14848;50.954;6.642;2022-11-18T11:22:42;11.60;99.90
15949;DHT22;14848;50.954;6.642;2022-11-18T11:25:17;11.70;99.90
15949;DHT22;14848;50.954;6.642;2022-11-18T11:27:57;13.20;99.90
15949;DHT22;14848;50.954;6.642;2022-11-18T11:30:25;11.80;99.90
15949;DHT22;14848;50.954;6.642;2022-11-18T11:33:07;11.90;99.90
15949;DHT22;14848;50.954;6.642;2022-11-18T11:38:23;11.90;99.90
15949;DHT22;14848;50.954;6.642;2022-11-18T11:46:25;11.90;99.90
15949;DHT22;14848;50.954;6.642;2022-11-18T11:51:30;11.90;99.90
15949;DHT22;14848;50.954;6.642;2022-11-18T12:06:45;12.20;99.90
15949;DHT22;14848;50.954;6.642;2022-11-18T12:09:16;12.40;99.90
15949;DHT22;14848;50.954;6.642;2022-11-18T12:19:21;12.60;99.90
15949;DHT22;14848;50.954;6.642;2022-11-18T12:21:51;12.50;99.90
15949;DHT22;14848;50.954;6.642;2022-11-18T12:26:43;12.50;99.90
15949;DHT22;14848;50.954;6.642;2022-11-18T12:31:56;12.70;99.90
15949;DHT22;14848;50.954;6.642;2022-11-18T12:36:51;13.10;99.90
15949;DHT22;14848;50.954;6.642;2022-11-18T12:44:29;13.30;99.90
15949;DHT22;14848;50.954;6.642;2022-11-18T12:46:56;13.30;99.90
15949;DHT22;14848;50.954;6.642;2022-11-18T12:51:47;13.30;99.90
15949;DHT22;14848;50.954;6.642;2022-11-18T12:54:21;13.30;99.90
15949;DHT22;14848;50.954;6.642;2022-11-18T12:56:48;13.40;99.90
15949;DHT22;14848;50.954;6.642;2022-11-18T12:59:14;13.30;99.90
15949;DHT22;14848;50.954;6.642;2022-11-18T13:01:39;13.30;99.90
15949;DHT22;14848;50.954;6.642;2022-11-18T13:04:16;13.10;99.90
15949;DHT22;14848;50.954;6.642;2022-11-18T13:06:44;13.00;99.90
15949;DHT22;14848;50.954;6.642;2022-11-18T13:09:16;12.90;99.90
15949;DHT22;14848;50.954;6.642;2022-11-18T13:11:46;12.90;99.90
15949;DHT22;14848;50.954;6.642;2022-11-18T13:14:22;12.80;99.90
15949;DHT22;14848;50.954;6.642;2022-11-18T13:28:59;12.50;99.90
15949;DHT22;14848;50.954;6.642;2022-11-18T13:33:52;12.40;99.90
15949;DHT22;14848;50.954;6.642;2022-11-18T13:36:18;12.30;99.90
15949;DHT22;14848;50.954;6.642;2022-11-18T13:38:54;12.30;99.90
15949;DHT22;14848;50.954;6.642;2022-11-18T13:41:20;12.40;99.90
15949;DHT22;14848;50.954;6.642;2022-11-18T13:46:40;12.50;99.90
15949;DHT22;14848;50.954;6.642;2022-11-18T13:49:09;12.60;99.90
15949;DHT22;14848;50.954;6.642;2022-11-18T13:51:38;12.60;99.90
15949;DHT22;14848;50.954;6.642;2022-11-18T13:54:04;12.60;99.90
15949;DHT22;14848;50.954;6.642;2022-11-18T13:56:29;12.60;99.90
15949;DHT22;14848;50.954;6.642;2022-11-18T13:58:57;12.70;99.90
15949;DHT22;14848;50.954;6.642;2022-11-18T14:01:32;12.60;99.90
15949;DHT22;14848;50.954;6.642;2022-11-18T14:04:01;12.70;99.90
15949;DHT22;14848;50.954;6.642;2022-11-18T14:06:28;12.70;99.90
15949;DHT22;14848;50.954;6.642;2022-11-18T14:09:35;12.70;99.90
15949;DHT22;14848;50.954;6.642;2022-11-18T14:11:56;12.70;99.90
15949;DHT22;14848;50.954;6.642;2022-11-18T14:14:29;12.60;99.90
15949;DHT22;14848;50.954;6.642;2022-11-18T14:17:01;12.50;99.90
15949;DHT22;14848;50.954;6.642;2022-11-18T14:19:28;12.40;99.90
15949;DHT22;14848;50.954;6.642;2022-11-18T14:22:01;12.40;99.90
15949;DHT22;14848;50.954;6.642;2022-11-18T14:24:27;12.40;99.90
15949;DHT22;14848;50.954;6.642;2022-11-18T14:26:52;12.30;99.90
15949;DHT22;14848;50.954;6.642;2022-11-18T14:29:18;12.30;99.90
15949;DHT22;14848;50.954;6.642;2022-11-18T14:34:55;12.20;99.90
15949;DHT22;14848;50.954;6.642;2022-11-18T14:37:21;12.10;99.90
15949;DHT22;14848;50.954;6.642;2022-11-18T14:39:53;12.00;99.90
15949;DHT22;14848;50.954;6.642;2022-11-18T14:42:19;12.00;99.90
15949;DHT22;14848;50.954;6.642;2022-11-18T14:44:44;12.00;99.90
15949;DHT22;14848;50.954;6.642;2022-11-18T14:47:13;11.90;99.90
15949;DHT22;14848;50.954;6.642;2022-11-18T14:49:42;11.80;99.90
15949;DHT22;14848;50.954;6.642;2022-11-18T14:52:08;11.70;99.90
15949;DHT22;14848;50.954;6.642;2022-11-18T14:54:34;11.70;99.90
15949;DHT22;14848;50.954;6.642;2022-11-18T14:57:00;11.60;99.90
15949;DHT22;14848;50.954;6.642;2022-11-18T14:59:26;11.60;99.90
15949;DHT22;14848;50.954;6.642;2022-11-18T15:01:52;11.50;99.90
15949;DHT22;14848;50.954;6.642;2022-11-18T15:04:18;11.50;99.90
15949;DHT22;14848;50.954;6.642;2022-11-18T15:06:45;11.40;99.90
15949;DHT22;14848;50.954;6.642;2022-11-18T15:09:11;11.30;99.90
15949;DHT22;14848;50.954;6.642;2022-11-18T15:11:37;11.20;99.90
15949;DHT22;14848;50.954;6.642;2022-11-18T15:14:02;11.40;99.90
15949;DHT22;14848;50.954;6.642;2022-11-18T15:16:29;11.20;99.90
15949;DHT22;14848;50.954;6.642;2022-11-18T15:18:55;11.20;99.90
15949;DHT22;14848;50.954;6.642;2022-11-18T15:21:22;11.20;99.90
15949;DHT22;14848;50.954;6.642;2022-11-18T15:23:48;11.10;99.90
15949;DHT22;14848;50.954;6.642;2022-11-18T15:28:46;11.00;99.90
15949;DHT22;14848;50.954;6.642;2022-11-18T15:31:11;11.00;99.90
15949;DHT22;14848;50.954;6.642;2022-11-18T15:33:37;10.90;99.90
15949;DHT22;14848;50.954;6.642;2022-11-18T15:36:03;10.90;99.90
15949;DHT22;14848;50.954;6.642;2022-11-18T15:38:28;10.90;99.90
15949;DHT22;14848;50.954;6.642;2022-11-18T15:40:54;10.80;99.90
15949;DHT22;14848;50.954;6.642;2022-11-18T15:43:21;10.80;99.90
15949;DHT22;14848;50.954;6.642;2022-11-18T15:45:46;10.80;99.90
15949;DHT22;14848;50.954;6.642;2022-11-18T15:48:12;10.70;99.90
15949;DHT22;14848;50.954;6.642;2022-11-18T15:50:37;10.70;99.90
15949;DHT22;14848;50.954;6.642;2022-11-18T15:53:03;10.70;99.90
15949;DHT22;14848;50.954;6.642;2022-11-18T15:55:29;10.80;99.90
15949;DHT22;14848;50.954;6.642;2022-11-18T15:57:54;10.80;99.90
15949;DHT22;14848;50.954;6.642;2022-11-18T16:00:20;10.90;99.90
15949;DHT22;14848;50.954;6.642;2022-11-18T16:02:45;10.90;99.90
15949;DHT22;14848;50.954;6.642;2022-11-18T16:05:11;10.90;99.90
15949;DHT22;14848;50.954;6.642;2022-11-18T16:07:36;10.80;99.90
15949;DHT22;14848;50.954;6.642;2022-11-18T16:10:02;10.70;99.90
15949;DHT22;14848;50.954;6.642;2022-11-18T16:12:46;10.70;99.90
15949;DHT22;14848;50.954;6.642;2022-11-18T16:15:12;10.60;99.90
15949;DHT22;14848;50.954;6.642;2022-11-18T16:17:56;10.50;99.90
15949;DHT22;14848;50.954;6.642;2022-11-18T16:20:23;10.50;99.90
15949;DHT22;14848;50.954;6.642;2022-11-18T16:22:48;10.50;99.90
15949;DHT22;14848;50.954;6.642;2022-11-18T16:25:14;10.40;99.90
15949;DHT22;14848;50.954;6.642;2022-11-18T16:27:39;10.40;99.90
15949;DHT22;14848;50.954;6.642;2022-11-18T16:30:05;10.30;99.90
15949;DHT22;14848;50.954;6.642;2022-11-18T16:32:31;10.30;99.90
15949;DHT22;14848;50.954;6.642;2022-11-18T16:34:56;10.30;99.90
15949;DHT22;14848;50.954;6.642;2022-11-18T16:37:23;10.30;99.90
15949;DHT22;14848;50.954;6.642;2022-11-18T16:39:49;10.30;99.90
15949;DHT22;14848;50.954;6.642;2022-11-18T16:42:14;10.20;99.90
15949;DHT22;14848;50.954;6.642;2022-11-18T16:44:40;10.10;99.90
15949;DHT22;14848;50.954;6.642;2022-11-18T16:47:06;10.10;99.90
15949;DHT22;14848;50.954;6.642;2022-11-18T16:49:31;10.00;99.90
15949;DHT22;14848;50.954;6.642;2022-11-18T16:51:57;9.90;99.90
15949;DHT22;14848;50.954;6.642;2022-11-18T16:54:24;9.90;99.90
15949;DHT22;14848;50.954;6.642;2022-11-18T16:56:50;9.90;99.90
15949;DHT22;14848;50.954;6.642;2022-11-18T16:59:16;9.90;99.90
15949;DHT22;14848;50.954;6.642;2022-11-18T17:01:42;9.90;99.90
15949;DHT22;14848;50.954;6.642;2022-11-18T17:04:08;9.90;99.90
15949;DHT22;14848;50.954;6.642;2022-11-18T17:06:36;10.00;99.90
15949;DHT22;14848;50.954;6.642;2022-11-18T17:09:01;10.00;99.90
15949;DHT22;14848;50.954;6.642;2022-11-18T17:11:27;10.00;99.90
15949;DHT22;14848;50.954;6.642;2022-11-18T17:13:53;10.00;99.90
15949;DHT22;14848;50.954;6.642;2022-11-18T17:16:19;10.00;99.90
15949;DHT22;14848;50.954;6.642;2022-11-18T17:18:44;10.00;99.90
15949;DHT22;14848;50.954;6.642;2022-11-18T17:21:11;10.00;99.90
15949;DHT22;14848;50.954;6.642;2022-11-18T17:23:37;10.00;99.90
15949;DHT22;14848;50.954;6.642;2022-11-18T17:26:03;10.00;99.90
15949;DHT22;14848;50.954;6.642;2022-11-18T17:28:30;10.00;99.90
15949;DHT22;14848;50.954;6.642;2022-11-18T17:30:56;10.00;99.90
15949;DHT22;14848;50.954;6.642;2022-11-18T17:33:22;10.00;99.90
15949;DHT22;14848;50.954;6.642;2022-11-18T17:35:57;10.00;99.90
15949;DHT22;14848;50.954;6.642;2022-11-18T17:38:23;10.10;99.90
15949;DHT22;14848;50.954;6.642;2022-11-18T17:40:52;10.10;99.90
15949;DHT22;14848;50.954;6.642;2022-11-18T17:43:18;10.10;99.90
15949;DHT22;14848;50.954;6.642;2022-11-18T17:45:47;10.00;99.90
15949;DHT22;14848;50.954;6.642;2022-11-18T17:48:13;10.00;99.90
15949;DHT22;14848;50.954;6.642;2022-11-18T17:50:38;10.00;99.90
15949;DHT22;14848;50.954;6.642;2022-11-18T17:53:04;10.00;99.90
15949;DHT22;14848;50.954;6.642;2022-11-18T17:55:29;10.00;99.90
15949;DHT22;14848;50.954;6.642;2022-11-18T17:57:55;10.00;99.90
15949;DHT22;14848;50.954;6.642;2022-11-18T18:00:20;10.00;99.90
15949;DHT22;14848;50.954;6.642;2022-11-18T18:02:46;9.00;99.90
15949;DHT22;14848;50.954;6.642;2022-11-18T18:05:11;9.90;99.90
15949;DHT22;14848;50.954;6.642;2022-11-18T18:07:37;10.00;99.90